sensor_id;sensor_type;location;lat;lon;timestamp;pressure;altitude;pressure_sealevel;temperature;humidity
17649;BME280;8943;51.110;-4.158;2023-04-10T00:01:31;100789.34;;;16.12;55.21
17649;BME280;8943;51.110;-4.158;2023-04-10T00:04:02;100789.34;;;16.12;55.12
17649;BME280;8943;51.110;-4.158;2023-04-10T00:06:31;100798.25;;;16.13;55.19
17649;BME280;8943;51.110;-4.158;2023-04-10T00:08:59;100781.97;;;16.14;55.11
17649;BME280;8943;51.110;-4.158;2023-04-10T00:11:28;100788.50;;;16.12;55.13
17649;BME280;8943;51.110;-4.158;2023-04-10T00:13:56;100780.44;;;16.12;54.91
17649;BME280;8943;51.110;-4.158;2023-04-10T00:16:25;100768.84;;;16.11;55.24
17649;BME280;8943;51.110;-4.158;2023-04-10T00:18:54;100769.69;;;16.12;55.24
17649;BME280;8943;51.110;-4.158;2023-04-10T00:21:22;100760.78;;;16.11;55.32
17649;BME280;8943;51.110;-4.158;2023-04-10T00:23:50;100752.56;;;16.13;55.49
17649;BME280;8943;51.110;-4.158;2023-04-10T00:26:19;100754.97;;;16.16;55.47
17649;BME280;8943;51.110;-4.158;2023-04-10T00:28:49;100752.13;;;16.17;55.60
17649;BME280;8943;51.110;-4.158;2023-04-10T00:31:17;100749.44;;;16.17;55.53
17649;BME280;8943;51.110;-4.158;2023-04-10T00:33:46;100741.06;;;16.20;55.75
17649;BME280;8943;51.110;-4.158;2023-04-10T00:36:17;100739.97;;;16.13;56.32
17649;BME280;8943;51.110;-4.158;2023-04-10T00:38:46;100735.16;;;16.17;56.04
17649;BME280;8943;51.110;-4.158;2023-04-10T00:41:15;100732.13;;;16.20;56.01
17649;BME280;8943;51.110;-4.158;2023-04-10T00:43:44;100722.25;;;16.20;56.24
17649;BME280;8943;51.110;-4.158;2023-04-10T00:46:12;100720.25;;;16.22;56.57
17649;BME280;8943;51.110;-4.158;2023-04-10T00:48:41;100716.28;;;16.27;56.34
17649;BME280;8943;51.110;-4.158;2023-04-10T00:51:10;100716.88;;;16.20;56.76
17649;BME280;8943;51.110;-4.158;2023-04-10T00:53:40;100714.03;;;16.22;56.52
17649;BME280;8943;51.110;-4.158;2023-04-10T00:56:08;100710.34;;;16.23;56.78
17649;BME280;8943;51.110;-4.158;2023-04-10T00:58:37;100707.81;;;16.21;56.84
17649;BME280;8943;51.110;-4.158;2023-04-10T01:01:06;100706.25;;;16.19;56.98
17649;BME280;8943;51.110;-4.158;2023-04-10T01:03:34;100703.88;;;16.16;56.90
17649;BME280;8943;51.110;-4.158;2023-04-10T01:06:09;100697.66;;;16.15;57.07
17649;BME280;8943;51.110;-4.158;2023-04-10T01:08:47;100704.16;;;16.13;57.14
17649;BME280;8943;51.110;-4.158;2023-04-10T01:11:26;100705.00;;;16.13;57.22
17649;BME280;8943;51.110;-4.158;2023-04-10T01:14:04;100699.25;;;16.08;57.42
17649;BME280;8943;51.110;-4.158;2023-04-10T01:16:35;100705.31;;;16.10;57.11
17649;BME280;8943;51.110;-4.158;2023-04-10T01:19:16;100695.03;;;16.06;57.55
17649;BME280;8943;51.110;-4.158;2023-04-10T01:21:52;100702.94;;;16.07;57.44
17649;BME280;8943;51.110;-4.158;2023-04-10T01:24:36;100689.66;;;16.06;57.44
17649;BME280;8943;51.110;-4.158;2023-04-10T01:27:11;100698.84;;;16.03;57.61
17649;BME280;8943;51.110;-4.158;2023-04-10T01:29:51;100699.00;;;16.02;57.75
17649;BME280;8943;51.110;-4.158;2023-04-10T01:32:23;100698.16;;;16.01;57.67
17649;BME280;8943;51.110;-4.158;2023-04-10T01:34:54;100698.16;;;16.01;57.72
17649;BME280;8943;51.110;-4.158;2023-04-10T01:37:26;100706.66;;;15.96;58.01
17649;BME280;8943;51.110;-4.158;2023-04-10T01:40:03;100711.88;;;15.98;58.00
17649;BME280;8943;51.110;-4.158;2023-04-10T01:42:34;100709.34;;;15.96;57.96
17649;BME280;8943;51.110;-4.158;2023-04-10T01:45:08;100696.03;;;15.95;58.06
17649;BME280;8943;51.110;-4.158;2023-04-10T01:47:39;100698.72;;;15.95;58.21
17649;BME280;8943;51.110;-4.158;2023-04-10T01:50:08;100693.34;;;15.95;58.18
17649;BME280;8943;51.110;-4.158;2023-04-10T01:52:36;100681.75;;;15.94;58.18
17649;BME280;8943;51.110;-4.158;2023-04-10T01:55:07;100669.50;;;15.92;57.95
17649;BME280;8943;51.110;-4.158;2023-04-10T01:57:35;100671.44;;;15.90;58.26
17649;BME280;8943;51.110;-4.158;2023-04-10T02:00:04;100669.78;;;15.89;58.30
17649;BME280;8943;51.110;-4.158;2023-04-10T02:02:34;100668.47;;;15.93;58.29
17649;BME280;8943;51.110;-4.158;2023-04-10T02:05:04;100656.19;;;15.90;58.31
17649;BME280;8943;51.110;-4.158;2023-04-10T02:07:43;100656.34;;;15.89;58.39
17649;BME280;8943;51.110;-4.158;2023-04-10T02:10:15;100655.34;;;15.90;58.54
17649;BME280;8943;51.110;-4.158;2023-04-10T02:12:50;100653.81;;;15.87;58.50
17649;BME280;8943;51.110;-4.158;2023-04-10T02:15:22;100655.94;;;15.84;58.38
17649;BME280;8943;51.110;-4.158;2023-04-10T02:17:53;100658.34;;;15.87;58.71
17649;BME280;8943;51.110;-4.158;2023-04-10T02:20:23;100653.50;;;15.90;58.40
17649;BME280;8943;51.110;-4.158;2023-04-10T02:22:52;100645.59;;;15.89;58.59
17649;BME280;8943;51.110;-4.158;2023-04-10T02:25:21;100648.28;;;15.89;58.72
17649;BME280;8943;51.110;-4.158;2023-04-10T02:27:49;100644.59;;;15.90;58.64
17649;BME280;8943;51.110;-4.158;2023-04-10T02:30:17;100629.88;;;15.94;58.38
17649;BME280;8943;51.110;-4.158;2023-04-10T02:32:45;100618.28;;;15.93;58.53
17649;BME280;8943;51.110;-4.158;2023-04-10T02:35:15;100604.66;;;15.95;58.75
17649;BME280;8943;51.110;-4.158;2023-04-10T02:37:43;100606.53;;;15.94;58.96
17649;BME280;8943;51.110;-4.158;2023-04-10T02:40:13;100600.84;;;15.98;58.60
17649;BME280;8943;51.110;-4.158;2023-04-10T02:42:41;100595.66;;;15.96;58.57
17649;BME280;8943;51.110;-4.158;2023-04-10T02:45:10;100600.84;;;15.98;58.83
17649;BME280;8943;51.110;-4.158;2023-04-10T02:47:38;100593.63;;;15.98;58.67
17649;BME280;8943;51.110;-4.158;2023-04-10T02:50:07;100577.34;;;16.00;58.61
17649;BME280;8943;51.110;-4.158;2023-04-10T02:52:37;100579.19;;;15.99;58.80
17649;BME280;8943;51.110;-4.158;2023-04-10T02:55:06;100572.13;;;15.98;58.75
17649;BME280;8943;51.110;-4.158;2023-04-10T02:57:34;100566.75;;;15.98;58.71
17649;BME280;8943;51.110;-4.158;2023-04-10T03:00:03;100565.09;;;15.97;58.95
17649;BME280;8943;51.110;-4.158;2023-04-10T03:02:32;100570.13;;;16.00;58.87
17649;BME280;8943;51.110;-4.158;2023-04-10T03:05:06;100563.06;;;15.99;58.82
17649;BME280;8943;51.110;-4.158;2023-04-10T03:07:35;100561.09;;;16.01;58.90
17649;BME280;8943;51.110;-4.158;2023-04-10T03:10:06;100554.88;;;16.01;58.95
17649;BME280;8943;51.110;-4.158;2023-04-10T03:12:35;100548.34;;;16.03;58.88
17649;BME280;8943;51.110;-4.158;2023-04-10T03:15:03;100535.75;;;16.04;58.88
17649;BME280;8943;51.110;-4.158;2023-04-10T03:17:33;100536.47;;;16.06;58.86
17649;BME280;8943;51.110;-4.158;2023-04-10T03:20:01;100530.06;;;16.07;58.83
17649;BME280;8943;51.110;-4.158;2023-04-10T03:22:30;100540.66;;;16.08;58.90
17649;BME280;8943;51.110;-4.158;2023-04-10T03:24:58;100541.50;;;16.09;58.97
17649;BME280;8943;51.110;-4.158;2023-04-10T03:27:28;100541.50;;;16.09;59.02
17649;BME280;8943;51.110;-4.158;2023-04-10T03:30:00;100541.66;;;16.07;58.93
17649;BME280;8943;51.110;-4.158;2023-04-10T03:32:29;100537.13;;;16.08;58.73
17649;BME280;8943;51.110;-4.158;2023-04-10T03:34:57;100531.75;;;16.08;58.95
17649;BME280;8943;51.110;-4.158;2023-04-10T03:37:26;100529.06;;;16.08;58.99
17649;BME280;8943;51.110;-4.158;2023-04-10T03:39:57;100525.38;;;16.09;59.03
17649;BME280;8943;51.110;-4.158;2023-04-10T03:42:26;100519.16;;;16.08;58.98
17649;BME280;8943;51.110;-4.158;2023-04-10T03:44:55;100522.84;;;16.07;59.02
17649;BME280;8943;51.110;-4.158;2023-04-10T03:47:24;100520.84;;;16.09;59.07
17649;BME280;8943;51.110;-4.158;2023-04-10T03:49:52;100522.53;;;16.10;59.10
17649;BME280;8943;51.110;-4.158;2023-04-10T03:52:22;100525.38;;;16.09;58.80
17649;BME280;8943;51.110;-4.158;2023-04-10T03:54:50;100515.47;;;16.09;58.82
17649;BME280;8943;51.110;-4.158;2023-04-10T03:57:19;100523.41;;;16.11;59.20
17649;BME280;8943;51.110;-4.158;2023-04-10T03:59:47;100512.66;;;16.11;59.21
17649;BME280;8943;51.110;-4.158;2023-04-10T04:02:18;100507.13;;;16.12;59.15
17649;BME280;8943;51.110;-4.158;2023-04-10T04:04:48;100512.31;;;16.14;59.20
17649;BME280;8943;51.110;-4.158;2023-04-10T04:07:17;100509.19;;;16.18;58.94
17649;BME280;8943;51.110;-4.158;2023-04-10T04:09:45;100504.63;;;16.19;59.09
17649;BME280;8943;51.110;-4.158;2023-04-10T04:12:15;100501.81;;;16.20;59.02
17649;BME280;8943;51.110;-4.158;2023-04-10T04:14:43;100498.13;;;16.21;59.07
17649;BME280;8943;51.110;-4.158;2023-04-10T04:17:12;100493.97;;;16.27;58.90
17649;BME280;8943;51.110;-4.158;2023-04-10T04:19:42;100493.81;;;16.29;58.84
17649;BME280;8943;51.110;-4.158;2023-04-10T04:22:10;100493.81;;;16.29;59.13
17649;BME280;8943;51.110;-4.158;2023-04-10T04:24:39;100495.47;;;16.30;58.81
17649;BME280;8943;51.110;-4.158;2023-04-10T04:27:07;100507.13;;;16.30;59.10
17649;BME280;8943;51.110;-4.158;2023-04-10T04:29:35;100499.72;;;16.32;58.69
17649;BME280;8943;51.110;-4.158;2023-04-10T04:32:05;100500.88;;;16.30;58.89
17649;BME280;8943;51.110;-4.158;2023-04-10T04:34:45;100489.44;;;16.28;58.86
17649;BME280;8943;51.110;-4.158;2023-04-10T04:37:14;100491.56;;;16.24;58.84
17649;BME280;8943;51.110;-4.158;2023-04-10T04:39:43;100484.53;;;16.23;58.90
17649;BME280;8943;51.110;-4.158;2023-04-10T04:42:11;100480.31;;;16.20;58.93
17649;BME280;8943;51.110;-4.158;2023-04-10T04:44:39;100476.75;;;16.20;59.02
17649;BME280;8943;51.110;-4.158;2023-04-10T04:47:08;100475.06;;;16.19;58.99
17649;BME280;8943;51.110;-4.158;2023-04-10T04:49:36;100466.50;;;16.15;59.00
17649;BME280;8943;51.110;-4.158;2023-04-10T04:55:21;100463.41;;;16.10;59.08
17649;BME280;8943;51.110;-4.158;2023-04-10T04:57:52;100463.41;;;16.10;59.14
17649;BME280;8943;51.110;-4.158;2023-04-10T05:00:45;100479.53;;;16.10;58.77
17649;BME280;8943;51.110;-4.158;2023-04-10T05:03:14;100479.53;;;16.10;59.00
17649;BME280;8943;51.110;-4.158;2023-04-10T05:05:44;100471.31;;;16.12;59.07
17649;BME280;8943;51.110;-4.158;2023-04-10T05:08:13;100463.56;;;16.09;59.04
17649;BME280;8943;51.110;-4.158;2023-04-10T05:10:44;100453.66;;;16.09;59.38
17649;BME280;8943;51.110;-4.158;2023-04-10T05:13:12;100460.03;;;16.08;59.03
17649;BME280;8943;51.110;-4.158;2023-04-10T05:15:41;100461.41;;;16.12;59.07
17649;BME280;8943;51.110;-4.158;2023-04-10T05:18:10;100455.19;;;16.12;59.15
17649;BME280;8943;51.110;-4.158;2023-04-10T05:20:39;100458.72;;;16.12;59.00
17649;BME280;8943;51.110;-4.158;2023-04-10T05:23:11;100451.50;;;16.13;59.01
17649;BME280;8943;51.110;-4.158;2023-04-10T05:25:39;100449.66;;;16.13;58.85
17649;BME280;8943;51.110;-4.158;2023-04-10T05:28:09;100440.09;;;16.11;59.09
17649;BME280;8943;51.110;-4.158;2023-04-10T05:30:37;100445.59;;;16.09;59.15
17649;BME280;8943;51.110;-4.158;2023-04-10T05:33:06;100439.91;;;16.12;59.26
17649;BME280;8943;51.110;-4.158;2023-04-10T05:35:34;100445.28;;;16.12;58.99
17649;BME280;8943;51.110;-4.158;2023-04-10T05:38:03;100442.44;;;16.14;59.03
17649;BME280;8943;51.110;-4.158;2023-04-10T05:40:31;100438.22;;;16.11;59.28
17649;BME280;8943;51.110;-4.158;2023-04-10T05:42:59;100438.22;;;16.11;59.19
17649;BME280;8943;51.110;-4.158;2023-04-10T05:45:28;100431.16;;;16.10;59.29
17649;BME280;8943;51.110;-4.158;2023-04-10T05:47:57;100436.22;;;16.13;59.50
17649;BME280;8943;51.110;-4.158;2023-04-10T05:50:25;100436.22;;;16.13;59.44
17649;BME280;8943;51.110;-4.158;2023-04-10T05:52:55;100432.53;;;16.14;59.26
17649;BME280;8943;51.110;-4.158;2023-04-10T05:55:24;100432.22;;;16.17;59.44
17649;BME280;8943;51.110;-4.158;2023-04-10T05:57:52;100436.59;;;16.18;59.40
17649;BME280;8943;51.110;-4.158;2023-04-10T06:00:20;100450.03;;;16.18;59.72
17649;BME280;8943;51.110;-4.158;2023-04-10T06:02:49;100449.41;;;16.25;59.72
17649;BME280;8943;51.110;-4.158;2023-04-10T06:05:18;100446.59;;;16.26;59.80
17649;BME280;8943;51.110;-4.158;2023-04-10T06:07:47;100453.28;;;16.22;59.81
17649;BME280;8943;51.110;-4.158;2023-04-10T06:10:15;100453.44;;;16.20;60.12
17649;BME280;8943;51.110;-4.158;2023-04-10T06:12:43;100465.03;;;16.21;59.81
17649;BME280;8943;51.110;-4.158;2023-04-10T06:15:12;100456.50;;;16.26;59.68
17649;BME280;8943;51.110;-4.158;2023-04-10T06:17:40;100460.63;;;16.20;59.87
17649;BME280;8943;51.110;-4.158;2023-04-10T06:20:11;100457.81;;;16.21;59.51
17649;BME280;8943;51.110;-4.158;2023-04-10T06:22:40;100456.63;;;16.24;59.47
17649;BME280;8943;51.110;-4.158;2023-04-10T06:25:08;100456.78;;;16.22;59.50
17649;BME280;8943;51.110;-4.158;2023-04-10T06:27:37;100447.88;;;16.22;59.46
17649;BME280;8943;51.110;-4.158;2023-04-10T06:30:07;100451.41;;;16.22;59.69
17649;BME280;8943;51.110;-4.158;2023-04-10T06:32:35;100455.97;;;16.22;59.63
17649;BME280;8943;51.110;-4.158;2023-04-10T06:35:04;100466.72;;;16.22;60.03
17649;BME280;8943;51.110;-4.158;2023-04-10T06:37:34;100455.13;;;16.21;59.50
17649;BME280;8943;51.110;-4.158;2023-04-10T06:40:04;100452.50;;;16.12;59.51
17649;BME280;8943;51.110;-4.158;2023-04-10T06:42:34;100440.84;;;16.03;59.65
17649;BME280;8943;51.110;-4.158;2023-04-10T06:45:04;100446.31;;;15.93;60.24
17649;BME280;8943;51.110;-4.158;2023-04-10T06:47:32;100450.91;;;15.83;60.08
17649;BME280;8943;51.110;-4.158;2023-04-10T06:50:01;100440.91;;;15.76;60.29
17649;BME280;8943;51.110;-4.158;2023-04-10T06:52:31;100450.13;;;15.73;60.78
17649;BME280;8943;51.110;-4.158;2023-04-10T06:55:00;100433.81;;;15.66;60.61
17649;BME280;8943;51.110;-4.158;2023-04-10T06:57:29;100449.34;;;15.63;60.91
17649;BME280;8943;51.110;-4.158;2023-04-10T06:59:58;100449.22;;;15.64;61.22
17649;BME280;8943;51.110;-4.158;2023-04-10T07:02:27;100432.38;;;15.62;61.42
17649;BME280;8943;51.110;-4.158;2023-04-10T07:04:56;100444.84;;;15.63;61.31
17649;BME280;8943;51.110;-4.158;2023-04-10T07:07:25;100437.47;;;15.65;61.69
17649;BME280;8943;51.110;-4.158;2023-04-10T07:09:55;100437.16;;;15.68;61.25
17649;BME280;8943;51.110;-4.158;2023-04-10T07:12:26;100431.63;;;15.70;61.35
17649;BME280;8943;51.110;-4.158;2023-04-10T07:14:54;100424.75;;;15.67;61.13
17649;BME280;8943;51.110;-4.158;2023-04-10T07:17:23;100427.44;;;15.67;61.18
17649;BME280;8943;51.110;-4.158;2023-04-10T07:19:53;100442.16;;;15.63;61.46
17649;BME280;8943;51.110;-4.158;2023-04-10T07:22:26;100434.94;;;15.64;61.59
17649;BME280;8943;51.110;-4.158;2023-04-10T07:24:57;100441.16;;;15.64;61.95
17649;BME280;8943;51.110;-4.158;2023-04-10T07:27:28;100445.38;;;15.67;61.78
17649;BME280;8943;51.110;-4.158;2023-04-10T07:29:56;100442.25;;;15.72;61.90
17649;BME280;8943;51.110;-4.158;2023-04-10T07:32:25;100441.91;;;15.75;61.71
17649;BME280;8943;51.110;-4.158;2023-04-10T07:34:54;100446.63;;;15.73;61.54
17649;BME280;8943;51.110;-4.158;2023-04-10T07:37:25;100457.66;;;15.69;61.57
17649;BME280;8943;51.110;-4.158;2023-04-10T07:39:53;100448.13;;;15.75;61.82
17649;BME280;8943;51.110;-4.158;2023-04-10T07:42:21;100439.94;;;15.77;61.99
17649;BME280;8943;51.110;-4.158;2023-04-10T07:44:52;100424.88;;;15.84;61.69
17649;BME280;8943;51.110;-4.158;2023-04-10T07:47:20;100431.47;;;15.89;61.43
17649;BME280;8943;51.110;-4.158;2023-04-10T07:49:50;100433.63;;;15.86;61.20
17649;BME280;8943;51.110;-4.158;2023-04-10T07:52:19;100433.78;;;15.84;60.60
17649;BME280;8943;51.110;-4.158;2023-04-10T07:54:48;100428.50;;;15.75;60.88
17649;BME280;8943;51.110;-4.158;2023-04-10T07:57:30;100437.09;;;15.78;60.98
17649;BME280;8943;51.110;-4.158;2023-04-10T08:00:00;100428.25;;;15.86;61.21
17649;BME280;8943;51.110;-4.158;2023-04-10T08:02:32;100435.38;;;15.95;61.42
17649;BME280;8943;51.110;-4.158;2023-04-10T08:05:03;100436.84;;;16.07;60.98
17649;BME280;8943;51.110;-4.158;2023-04-10T08:07:31;100424.63;;;16.13;60.66
17649;BME280;8943;51.110;-4.158;2023-04-10T08:10:02;100425.38;;;16.23;60.66
17649;BME280;8943;51.110;-4.158;2023-04-10T08:12:35;100432.69;;;16.31;60.71
17649;BME280;8943;51.110;-4.158;2023-04-10T08:15:06;100441.63;;;16.39;60.21
17649;BME280;8943;51.110;-4.158;2023-04-10T08:17:35;100427.09;;;16.50;60.18
17649;BME280;8943;51.110;-4.158;2023-04-10T08:20:07;100427.28;;;16.57;59.45
17649;BME280;8943;51.110;-4.158;2023-04-10T08:22:39;100437.28;;;16.64;59.20
17649;BME280;8943;51.110;-4.158;2023-04-10T08:25:09;100429.25;;;16.72;58.44
17649;BME280;8943;51.110;-4.158;2023-04-10T08:27:37;100425.56;;;16.73;58.57
17649;BME280;8943;51.110;-4.158;2023-04-10T08:30:08;100424.94;;;16.80;58.43
17649;BME280;8943;51.110;-4.158;2023-04-10T08:32:37;100432.00;;;16.81;58.41
17649;BME280;8943;51.110;-4.158;2023-04-10T08:35:08;100424.28;;;16.86;58.06
17649;BME280;8943;51.110;-4.158;2023-04-10T08:37:36;100421.28;;;16.89;57.83
17649;BME280;8943;51.110;-4.158;2023-04-10T08:40:05;100432.38;;;16.86;57.69
17649;BME280;8943;51.110;-4.158;2023-04-10T08:42:34;100420.22;;;16.82;57.16
17649;BME280;8943;51.110;-4.158;2023-04-10T08:45:03;100433.03;;;16.80;57.16
17649;BME280;8943;51.110;-4.158;2023-04-10T08:47:35;100430.81;;;16.75;57.10
17649;BME280;8943;51.110;-4.158;2023-04-10T08:50:05;100422.56;;;16.77;56.48
17649;BME280;8943;51.110;-4.158;2023-04-10T08:52:37;100412.09;;;16.73;56.36
17649;BME280;8943;51.110;-4.158;2023-04-10T08:55:12;100422.34;;;16.70;56.11
17649;BME280;8943;51.110;-4.158;2023-04-10T08:57:43;100420.78;;;16.67;55.79
17649;BME280;8943;51.110;-4.158;2023-04-10T09:00:27;100434.09;;;16.69;55.88
17649;BME280;8943;51.110;-4.158;2023-04-10T09:02:58;100418.09;;;16.67;55.89
17649;BME280;8943;51.110;-4.158;2023-04-10T09:05:28;100396.66;;;16.76;56.27
17649;BME280;8943;51.110;-4.158;2023-04-10T09:07:57;100405.09;;;16.81;55.71
17649;BME280;8943;51.110;-4.158;2023-04-10T09:10:25;100421.91;;;16.83;55.74
17649;BME280;8943;51.110;-4.158;2023-04-10T09:12:53;100408.81;;;16.88;55.62
17649;BME280;8943;51.110;-4.158;2023-04-10T09:15:22;100416.09;;;16.95;55.54
17649;BME280;8943;51.110;-4.158;2023-04-10T09:17:55;100425.06;;;17.04;55.12
17649;BME280;8943;51.110;-4.158;2023-04-10T09:20:27;100442.41;;;17.10;55.42
17649;BME280;8943;51.110;-4.158;2023-04-10T09:22:55;100446.47;;;17.14;55.04
17649;BME280;8943;51.110;-4.158;2023-04-10T09:25:32;100433.53;;;17.25;54.71
17649;BME280;8943;51.110;-4.158;2023-04-10T09:28:02;100443.50;;;17.33;54.72
17649;BME280;8943;51.110;-4.158;2023-04-10T09:30:36;100425.69;;;17.40;54.14
17649;BME280;8943;51.110;-4.158;2023-04-10T09:33:22;100452.09;;;17.37;52.99
17649;BME280;8943;51.110;-4.158;2023-04-10T09:35:56;100454.78;;;17.29;53.30
17649;BME280;8943;51.110;-4.158;2023-04-10T09:38:25;100461.34;;;17.34;53.16
17649;BME280;8943;51.110;-4.158;2023-04-10T09:41:05;100454.78;;;17.29;53.47
17649;BME280;8943;51.110;-4.158;2023-04-10T09:43:33;100431.56;;;17.36;53.33
17649;BME280;8943;51.110;-4.158;2023-04-10T09:46:02;100413.06;;;17.33;52.57
17649;BME280;8943;51.110;-4.158;2023-04-10T09:48:30;100440.97;;;17.32;52.62
17649;BME280;8943;51.110;-4.158;2023-04-10T09:51:00;100458.84;;;17.33;52.70
17649;BME280;8943;51.110;-4.158;2023-04-10T09:53:28;100489.97;;;17.35;52.94
17649;BME280;8943;51.110;-4.158;2023-04-10T09:55:57;100442.31;;;17.36;52.32
17649;BME280;8943;51.110;-4.158;2023-04-10T09:58:25;100452.09;;;17.37;52.49
17649;BME280;8943;51.110;-4.158;2023-04-10T10:01:00;100439.97;;;17.41;51.98
17649;BME280;8943;51.110;-4.158;2023-04-10T10:03:28;100454.81;;;17.45;51.93
17649;BME280;8943;51.110;-4.158;2023-04-10T10:05:57;100449.91;;;17.40;51.31
17649;BME280;8943;51.110;-4.158;2023-04-10T10:08:31;100473.31;;;17.40;51.47
17649;BME280;8943;51.110;-4.158;2023-04-10T10:11:01;100474.16;;;17.40;51.56
17649;BME280;8943;51.110;-4.158;2023-04-10T10:13:41;100495.03;;;17.46;51.18
17649;BME280;8943;51.110;-4.158;2023-04-10T10:16:14;100487.13;;;17.45;51.43
17649;BME280;8943;51.110;-4.158;2023-04-10T10:18:50;100470.28;;;17.35;50.97
17649;BME280;8943;51.110;-4.158;2023-04-10T10:21:23;100473.28;;;17.32;51.43
17649;BME280;8943;51.110;-4.158;2023-04-10T10:23:57;100468.28;;;17.45;51.38
17649;BME280;8943;51.110;-4.158;2023-04-10T10:26:26;100535.66;;;17.53;50.65
17649;BME280;8943;51.110;-4.158;2023-04-10T10:28:55;100485.47;;;17.44;50.20
17649;BME280;8943;51.110;-4.158;2023-04-10T10:31:24;100500.28;;;17.56;49.74
17649;BME280;8943;51.110;-4.158;2023-04-10T10:34:00;100491.91;;;17.59;49.91
17649;BME280;8943;51.110;-4.158;2023-04-10T10:36:31;100511.44;;;17.61;49.90
17649;BME280;8943;51.110;-4.158;2023-04-10T10:39:12;100487.19;;;17.61;50.19
17649;BME280;8943;51.110;-4.158;2023-04-10T10:41:49;100493.25;;;17.63;50.36
17649;BME280;8943;51.110;-4.158;2023-04-10T10:44:27;100504.88;;;17.64;50.10
17649;BME280;8943;51.110;-4.158;2023-04-10T10:47:04;100545.25;;;17.56;49.77
17649;BME280;8943;51.110;-4.158;2023-04-10T10:49:54;100491.16;;;17.41;50.04
17649;BME280;8943;51.110;-4.158;2023-04-10T10:52:43;100525.16;;;17.42;50.33
17649;BME280;8943;51.110;-4.158;2023-04-10T10:55:31;100510.34;;;17.38;50.75
17649;BME280;8943;51.110;-4.158;2023-04-10T10:58:05;100502.63;;;17.43;50.58
17649;BME280;8943;51.110;-4.158;2023-04-10T11:01:04;100506.81;;;17.37;50.38
17649;BME280;8943;51.110;-4.158;2023-04-10T11:03:36;100507.97;;;17.35;50.51
17649;BME280;8943;51.110;-4.158;2023-04-10T11:06:06;100527.97;;;17.32;49.89
17649;BME280;8943;51.110;-4.158;2023-04-10T11:08:42;100504.88;;;17.21;50.23
17649;BME280;8943;51.110;-4.158;2023-04-10T11:11:15;100497.28;;;17.17;50.32
17649;BME280;8943;51.110;-4.158;2023-04-10T11:14:12;100489.38;;;17.15;50.08
17649;BME280;8943;51.110;-4.158;2023-04-10T11:16:46;100503.13;;;17.12;50.22
17649;BME280;8943;51.110;-4.158;2023-04-10T11:19:15;100502.63;;;17.09;49.99
17649;BME280;8943;51.110;-4.158;2023-04-10T11:22:05;100491.69;;;17.10;50.73
17649;BME280;8943;51.110;-4.158;2023-04-10T11:24:51;100525.69;;;17.11;50.88
17649;BME280;8943;51.110;-4.158;2023-04-10T11:27:40;100508.53;;;17.12;50.95
17649;BME280;8943;51.110;-4.158;2023-04-10T11:30:32;100490.91;;;17.18;49.93
17649;BME280;8943;51.110;-4.158;2023-04-10T11:33:02;100542.31;;;17.07;49.67
17649;BME280;8943;51.110;-4.158;2023-04-10T11:35:31;100516.78;;;17.11;49.29
17649;BME280;8943;51.110;-4.158;2023-04-10T11:38:14;100488.34;;;17.08;49.43
17649;BME280;8943;51.110;-4.158;2023-04-10T11:40:53;100506.53;;;17.14;49.79
17649;BME280;8943;51.110;-4.158;2023-04-10T11:43:23;100503.88;;;17.22;49.46
17649;BME280;8943;51.110;-4.158;2023-04-10T11:45:58;100513.66;;;17.32;49.09
17649;BME280;8943;51.110;-4.158;2023-04-10T11:48:27;100504.25;;;17.36;49.35
17649;BME280;8943;51.110;-4.158;2023-04-10T11:50:56;100512.03;;;17.47;48.92
17649;BME280;8943;51.110;-4.158;2023-04-10T11:53:25;100525.00;;;17.43;48.72
17649;BME280;8943;51.110;-4.158;2023-04-10T11:55:55;100513.41;;;17.51;48.77
17649;BME280;8943;51.110;-4.158;2023-04-10T11:58:27;100515.13;;;17.60;49.06
17649;BME280;8943;51.110;-4.158;2023-04-10T12:01:00;100513.00;;;17.72;48.46
17649;BME280;8943;51.110;-4.158;2023-04-10T12:03:36;100521.47;;;17.77;47.65
17649;BME280;8943;51.110;-4.158;2023-04-10T12:06:07;100514.56;;;17.91;47.43
17649;BME280;8943;51.110;-4.158;2023-04-10T12:08:37;100539.91;;;18.06;47.21
17649;BME280;8943;51.110;-4.158;2023-04-10T12:11:07;100526.75;;;18.11;46.56
17649;BME280;8943;51.110;-4.158;2023-04-10T12:13:37;100560.31;;;18.17;46.28
17649;BME280;8943;51.110;-4.158;2023-04-10T12:16:07;100533.47;;;18.15;46.37
17649;BME280;8943;51.110;-4.158;2023-04-10T12:18:37;100575.94;;;18.05;44.85
17649;BME280;8943;51.110;-4.158;2023-04-10T12:21:06;100541.72;;;17.97;45.36
17649;BME280;8943;51.110;-4.158;2023-04-10T12:23:36;100578.44;;;17.98;45.66
17649;BME280;8943;51.110;-4.158;2023-04-10T12:26:11;100528.75;;;17.93;45.57
17649;BME280;8943;51.110;-4.158;2023-04-10T12:28:49;100547.25;;;17.88;45.50
17649;BME280;8943;51.110;-4.158;2023-04-10T12:31:18;100556.38;;;17.87;46.30
17649;BME280;8943;51.110;-4.158;2023-04-10T12:33:53;100556.00;;;17.90;46.18
17649;BME280;8943;51.110;-4.158;2023-04-10T12:36:24;100565.97;;;17.89;46.43
17649;BME280;8943;51.110;-4.158;2023-04-10T12:38:55;100564.75;;;17.84;46.26
17649;BME280;8943;51.110;-4.158;2023-04-10T12:41:25;100584.97;;;17.80;45.97
17649;BME280;8943;51.110;-4.158;2023-04-10T12:44:07;100537.75;;;17.67;46.65
17649;BME280;8943;51.110;-4.158;2023-04-10T12:46:36;100559.13;;;17.69;46.71
17649;BME280;8943;51.110;-4.158;2023-04-10T12:49:08;100530.88;;;17.73;47.13
17649;BME280;8943;51.110;-4.158;2023-04-10T12:51:40;100587.22;;;17.92;47.21
17649;BME280;8943;51.110;-4.158;2023-04-10T12:54:09;100552.16;;;18.00;46.77
17649;BME280;8943;51.110;-4.158;2023-04-10T12:56:41;100535.69;;;18.20;46.89
17649;BME280;8943;51.110;-4.158;2023-04-10T12:59:10;100544.31;;;18.32;45.73
17649;BME280;8943;51.110;-4.158;2023-04-10T13:01:39;100534.88;;;18.36;45.46
17649;BME280;8943;51.110;-4.158;2023-04-10T13:04:07;100519.69;;;18.35;44.67
17649;BME280;8943;51.110;-4.158;2023-04-10T13:06:41;100528.13;;;18.32;44.86
17649;BME280;8943;51.110;-4.158;2023-04-10T13:09:10;100526.78;;;18.36;44.73
17649;BME280;8943;51.110;-4.158;2023-04-10T13:11:42;100525.91;;;18.43;44.76
17649;BME280;8943;51.110;-4.158;2023-04-10T13:14:14;100551.22;;;18.42;44.27